Time;durP1;ratioP1;P1;durP2;ratioP2;P2;SDS_P1;SDS_P2;PMS_P1;PMS_P2;Temp;Humidity;BMP_temperature;BMP_pressure;BME280_temperature;BME280_humidity;BME280_pressure;Samples;Min_cycle;Max_cycle;Signal;HPM_P1;HPM_P2
2022/10/27 00:00:04;;;;;;;9.55;3.92;;;;;;;9.77;100.00;99611.66;5004837;28;20399;-72
2022/10/27 00:02:30;;;;;;;7.78;4.05;;;;;;;9.72;100.00;99605.09;5009559;28;20088;-72
2022/10/27 00:04:55;;;;;;;5.28;3.35;;;;;;;9.66;100.00;99615.59;5006463;28;20037;-71
2022/10/27 00:07:20;;;;;;;9.27;3.60;;;;;;;9.59;100.00;99601.13;5007323;28;20028;-72
2022/10/27 00:09:45;;;;;;;8.32;3.47;;;;;;;9.48;100.00;99585.28;5021177;28;20057;-72
2022/10/27 00:12:11;;;;;;;7.97;3.42;;;;;;;9.45;100.00;99577.56;5004127;28;20033;-74
2022/10/27 00:14:36;;;;;;;6.05;3.00;;;;;;;9.53;100.00;99592.88;5004461;28;20026;-72
2022/10/27 00:17:01;;;;;;;7.38;3.20;;;;;;;9.58;100.00;99604.00;5011789;28;20034;-72
2022/10/27 00:19:27;;;;;;;6.65;2.90;;;;;;;9.52;100.00;99602.00;5002571;28;20707;-73
2022/10/27 00:21:52;;;;;;;8.25;3.10;;;;;;;9.65;100.00;99597.69;5008277;28;20510;-72
2022/10/27 00:24:19;;;;;;;6.63;3.75;;;;;;;9.66;100.00;99609.34;5008662;28;20038;-73
2022/10/27 00:26:44;;;;;;;12.13;4.68;;;;;;;9.81;100.00;99604.03;5006552;28;20061;-73
2022/10/27 00:29:09;;;;;;;9.65;5.43;;;;;;;9.56;100.00;99576.31;5007396;28;20458;-73
2022/10/27 00:31:35;;;;;;;12.20;4.80;;;;;;;9.67;100.00;99608.34;5007384;28;20030;-73
2022/10/27 00:34:00;;;;;;;9.23;4.78;;;;;;;9.53;100.00;99596.41;5008641;28;20034;-73
2022/10/27 00:36:26;;;;;;;11.18;4.18;;;;;;;9.58;100.00;99610.22;5004675;28;20037;-73
2022/10/27 00:38:56;;;;;;;14.70;5.50;;;;;;;9.53;100.00;99617.19;5000973;28;20022;-72
2022/10/27 00:41:23;;;;;;;12.10;5.70;;;;;;;9.47;100.00;99617.91;5005091;28;20030;-73
2022/10/27 00:43:48;;;;;;;12.75;5.72;;;;;;;9.41;100.00;99617.59;5004537;28;20034;-73
2022/10/27 00:46:32;;;;;;;11.80;5.88;;;;;;;9.42;100.00;99624.66;5005577;28;20168;-73
2022/10/27 00:49:02;;;;;;;11.18;5.00;;;;;;;9.31;100.00;99622.34;5003850;28;20180;-72
2022/10/27 00:51:28;;;;;;;8.45;3.90;;;;;;;9.28;100.00;99614.59;5012600;28;20108;-72
2022/10/27 00:53:54;;;;;;;5.13;3.40;;;;;;;9.15;100.00;99611.63;4997218;28;20037;-72
2022/10/27 00:56:21;;;;;;;8.20;4.07;;;;;;;9.11;100.00;99604.88;5007081;28;20030;-72
2022/10/27 00:58:47;;;;;;;6.38;3.38;;;;;;;9.18;100.00;99620.22;5002720;28;20022;-73
2022/10/27 01:01:12;;;;;;;6.75;3.72;;;;;;;9.18;100.00;99601.31;5003526;28;20041;-72
2022/10/27 01:03:38;;;;;;;6.75;4.30;;;;;;;9.27;100.00;99617.47;5003592;28;21480;-71
2022/10/27 01:06:04;;;;;;;8.68;4.10;;;;;;;9.37;100.00;99615.41;5003796;28;20103;-73
2022/10/27 01:08:30;;;;;;;8.23;4.55;;;;;;;9.43;100.00;99623.66;5002180;28;20034;-72
2022/10/27 01:10:55;;;;;;;7.53;3.95;;;;;;;9.36;100.00;99613.72;5001422;28;20033;-72
2022/10/27 01:13:22;;;;;;;7.45;4.38;;;;;;;9.30;100.00;99615.28;5003100;28;20045;-73
2022/10/27 01:16:05;;;;;;;7.57;4.63;;;;;;;9.23;100.00;99614.28;5008802;28;20037;-72
2022/10/27 01:18:46;;;;;;;14.35;5.03;;;;;;;9.30;100.00;99620.69;5002145;28;20084;-73
2022/10/27 01:21:44;;;;;;;13.02;4.68;;;;;;;9.26;100.00;99613.94;5003984;28;20025;-72
2022/10/27 01:24:36;;;;;;;8.85;4.55;;;;;;;9.16;100.00;99606.03;5003377;28;20026;-71
2022/10/27 01:27:06;;;;;;;6.88;4.10;;;;;;;9.14;100.00;99607.22;5003623;28;20439;-72
2022/10/27 01:29:46;;;;;;;;;;;;;;;9.24;100.00;99618.66;5012192;28;20036;-72
2022/10/27 01:32:24;;;;;;;6.32;3.72;;;;;;;9.03;100.00;99602.22;5006700;28;19913;-72
2022/10/27 01:35:01;;;;;;;5.88;3.25;;;;;;;8.91;100.00;99604.44;5002878;28;20032;-73
2022/10/27 01:37:34;;;;;;;5.40;3.50;;;;;;;8.88;100.00;99608.34;5010142;28;20041;-72
2022/10/27 01:40:05;;;;;;;7.60;3.47;;;;;;;8.92;100.00;99612.34;5003742;28;20092;-72
2022/10/27 01:42:53;;;;;;;7.78;4.65;;;;;;;9.05;100.00;99606.41;5001800;28;20068;-72
2022/10/27 01:45:23;;;;;;;9.55;4.30;;;;;;;9.04;100.00;99603.88;4999380;28;20112;-72
2022/10/27 01:47:50;;;;;;;7.80;4.05;;;;;;;8.88;100.00;99602.06;5042065;22;20136;-53
2022/10/27 01:50:17;;;;;;;6.63;3.13;;;;;;;8.76;100.00;99601.63;5020305;28;20025;-55
2022/10/27 01:52:48;;;;;;;5.80;3.72;;;;;;;8.74;100.00;99595.53;5023003;28;20381;-55
2022/10/27 01:55:35;;;;;;;8.57;3.75;;;;;;;8.79;100.00;99601.25;5023729;28;20115;-55
2022/10/27 01:58:21;;;;;;;7.32;4.00;;;;;;;8.81;100.00;99609.19;5019723;28;20123;-55
2022/10/27 02:00:59;;;;;;;9.35;4.30;;;;;;;8.74;100.00;99603.63;5023093;28;20033;-55
2022/10/27 02:03:45;;;;;;;7.82;3.78;;;;;;;8.66;100.00;99598.25;5024951;28;20176;-55
2022/10/27 02:06:16;;;;;;;6.55;3.85;;;;;;;8.60;100.00;99590.84;5025261;28;20018;-55
2022/10/27 02:08:58;;;;;;;12.38;4.57;;;;;;;8.84;100.00;99598.06;5024525;28;20051;-54
2022/10/27 02:11:25;;;;;;;8.75;4.82;;;;;;;9.02;100.00;99592.44;5023994;28;20025;-55
2022/10/27 02:13:51;;;;;;;11.25;4.45;;;;;;;8.99;100.00;99589.06;5021128;28;20029;-55
2022/10/27 02:16:27;;;;;;;6.78;4.00;;;;;;;8.82;100.00;99595.50;5014276;28;20419;-55
2022/10/27 02:19:07;;;;;;;6.80;3.97;;;;;;;8.64;100.00;99595.72;5018401;28;20026;-55
2022/10/27 02:21:34;;;;;;;10.30;4.65;;;;;;;8.63;100.00;99604.00;5024691;28;20034;-55
2022/10/27 02:24:00;;;;;;;10.35;4.30;;;;;;;8.68;100.00;99604.34;5022376;28;20025;-55
2022/10/27 02:26:43;;;;;;;8.55;4.20;;;;;;;8.64;100.00;99605.66;5019767;28;20009;-55
2022/10/27 02:29:18;;;;;;;7.97;3.65;;;;;;;8.54;100.00;99609.41;5023351;28;20199;-55
2022/10/27 02:31:47;;;;;;;6.88;3.13;;;;;;;8.55;100.00;99600.28;5026362;28;20021;-55
2022/10/27 02:34:15;;;;;;;5.35;3.40;;;;;;;8.53;100.00;99601.47;5025074;28;20025;-55
2022/10/27 02:36:40;;;;;;;6.60;3.70;;;;;;;8.69;100.00;99589.81;5027475;28;20032;-55
2022/10/27 02:39:06;;;;;;;8.65;4.10;;;;;;;8.66;100.00;99580.22;5027852;28;20477;-55
2022/10/27 02:41:31;;;;;;;15.60;4.57;;;;;;;8.61;100.00;99585.28;5022293;28;20557;-55
2022/10/27 02:43:56;;;;;;;13.23;5.15;;;;;;;8.49;100.00;99586.66;5013835;28;20034;-55
2022/10/27 02:46:22;;;;;;;20.50;6.50;;;;;;;8.38;100.00;99585.09;5024772;28;20102;-55
2022/10/27 02:48:47;;;;;;;15.63;5.47;;;;;;;8.39;100.00;99594.94;5019951;28;20108;-55
2022/10/27 02:51:12;;;;;;;11.40;5.32;;;;;;;8.30;100.00;99599.44;5015720;28;20037;-55
2022/10/27 02:53:38;;;;;;;12.65;5.03;;;;;;;8.28;100.00;99614.94;5026611;28;20057;-55
2022/10/27 02:56:03;;;;;;;18.00;4.90;;;;;;;8.29;100.00;99607.69;5027271;28;20045;-55
2022/10/27 02:58:29;;;;;;;10.23;4.47;;;;;;;8.30;100.00;99617.47;5025190;28;20030;-55
2022/10/27 03:00:55;;;;;;;11.70;4.70;;;;;;;8.20;100.00;99623.03;5020519;28;20132;-56
2022/10/27 03:03:21;;;;;;;11.73;4.40;;;;;;;8.17;100.00;99627.91;5021785;28;20029;-56
2022/10/27 03:05:47;;;;;;;8.45;4.10;;;;;;;7.95;100.00;99603.31;5029162;28;20560;-55
2022/10/27 03:08:12;;;;;;;13.68;4.15;;;;;;;7.98;100.00;99624.53;5032870;28;20113;-55
2022/10/27 03:10:37;;;;;;;9.82;4.50;;;;;;;7.99;100.00;99615.44;5025982;28;20029;-53
2022/10/27 03:13:03;;;;;;;13.63;4.45;;;;;;;8.10;100.00;99617.81;5019360;28;20071;-53
2022/10/27 03:15:28;;;;;;;14.95;4.47;;;;;;;8.04;100.00;99615.78;5025453;28;20121;-54
2022/10/27 03:17:53;;;;;;;6.95;3.65;;;;;;;8.08;100.00;99630.59;5019264;28;20044;-55
2022/10/27 03:20:19;;;;;;;11.80;4.63;;;;;;;8.34;100.00;99629.59;5022221;28;20026;-55
2022/10/27 03:22:44;;;;;;;23.98;8.30;;;;;;;8.44;100.00;99621.38;5019401;28;20084;-55
2022/10/27 03:25:10;;;;;;;167.48;55.63;;;;;;;8.50;100.00;99621.53;5028940;28;20492;-54
2022/10/27 03:27:41;;;;;;;57.42;24.73;;;;;;;8.49;100.00;99630.66;5026449;28;20021;-55
2022/10/27 03:30:08;;;;;;;51.25;19.58;;;;;;;8.47;100.00;99623.75;5016757;28;20026;-55
2022/10/27 03:32:34;;;;;;;34.72;12.68;;;;;;;8.39;100.00;99621.88;5024660;28;20020;-52
2022/10/27 03:34:59;;;;;;;20.35;8.38;;;;;;;8.41;100.00;99611.78;5020924;28;20091;-52
2022/10/27 03:37:24;;;;;;;24.15;9.60;;;;;;;8.36;100.00;99606.03;5023141;28;20029;-52
2022/10/27 03:39:50;;;;;;;86.82;33.08;;;;;;;8.38;100.00;99609.38;5017779;28;20088;-52
2022/10/27 03:42:15;;;;;;;68.18;27.85;;;;;;;8.24;100.00;99601.97;5018587;28;20573;-54
2022/10/27 03:44:40;;;;;;;66.65;28.13;;;;;;;8.17;100.00;99606.34;5019149;28;20028;-54
2022/10/27 03:47:06;;;;;;;56.55;23.67;;;;;;;8.11;100.00;99603.31;5023669;28;20020;-55
2022/10/27 03:49:31;;;;;;;42.97;17.00;;;;;;;8.09;100.00;99605.31;5028751;28;20538;-55
2022/10/27 03:51:56;;;;;;;20.77;9.45;;;;;;;8.03;100.00;99605.16;5017142;28;20030;-57
2022/10/27 03:54:22;;;;;;;11.88;6.15;;;;;;;7.97;100.00;99603.16;5024197;28;20021;-54
2022/10/27 03:56:47;;;;;;;10.45;4.40;;;;;;;8.00;100.00;99605.50;5023171;28;20447;-54
2022/10/27 03:59:12;;;;;;;6.90;3.97;;;;;;;7.99;100.00;99603.81;5025372;28;20112;-54
2022/10/27 04:01:38;;;;;;;9.05;3.42;;;;;;;7.94;100.00;99612.41;5028827;28;20021;-54
2022/10/27 04:04:03;;;;;;;6.07;3.65;;;;;;;8.14;100.00;99618.31;5030492;28;20069;-55
2022/10/27 04:06:29;;;;;;;5.80;3.50;;;;;;;8.13;100.00;99614.78;5027592;28;20481;-55
2022/10/27 04:08:55;;;;;;;8.80;3.42;;;;;;;8.10;100.00;99620.50;5026381;28;20037;-55
2022/10/27 04:11:20;;;;;;;7.90;3.60;;;;;;;8.04;100.00;99623.88;5024640;28;20121;-55
2022/10/27 04:13:46;;;;;;;7.15;3.38;;;;;;;8.02;100.00;99622.34;5029202;28;20033;-55
2022/10/27 04:16:11;;;;;;;7.13;4.43;;;;;;;8.03;100.00;99624.88;5022359;28;20028;-55
2022/10/27 04:18:37;;;;;;;7.57;4.47;;;;;;;7.98;100.00;99629.06;5027023;28;20116;-54
2022/10/27 04:21:04;;;;;;;6.88;4.20;;;;;;;7.84;100.00;99617.94;5021757;28;20461;-55
2022/10/27 04:23:29;;;;;;;4.43;3.38;;;;;;;7.66;100.00;99622.63;5024642;28;20481;-55
2022/10/27 04:25:55;;;;;;;4.95;3.40;;;;;;;7.58;100.00;99612.66;5029989;28;20033;-55
2022/10/27 04:28:21;;;;;;;9.18;3.75;;;;;;;7.51;100.00;99617.00;5028450;28;20033;-55
2022/10/27 04:30:47;;;;;;;11.02;4.10;;;;;;;7.47;100.00;99611.13;5021139;28;20041;-55
2022/10/27 04:33:13;;;;;;;13.07;3.70;;;;;;;7.42;100.00;99613.47;5022208;28;20029;-55
2022/10/27 04:35:38;;;;;;;25.45;3.50;;;;;;;7.41;100.00;99611.78;5025661;28;20032;-55
2022/10/27 04:38:04;;;;;;;6.20;3.47;;;;;;;7.37;100.00;99617.66;5030829;28;20049;-55
2022/10/27 04:40:29;;;;;;;4.47;2.95;;;;;;;7.33;100.00;99610.91;5024848;28;20036;-55
2022/10/27 04:42:55;;;;;;;4.38;3.00;;;;;;;7.39;100.00;99607.56;5023885;28;20088;-55
2022/10/27 04:45:21;;;;;;;5.75;3.25;;;;;;;7.42;100.00;99601.84;5020006;28;20032;-55
2022/10/27 04:47:46;;;;;;;6.47;3.60;;;;;;;7.36;100.00;99611.44;5026151;28;20536;-55
2022/10/27 04:50:13;;;;;;;5.63;3.35;;;;;;;7.38;100.00;99613.94;5026302;28;20115;-55
2022/10/27 04:52:40;;;;;;;11.65;4.60;;;;;;;7.54;100.00;99623.91;5024385;28;20112;-55
2022/10/27 04:55:06;;;;;;;9.13;3.85;;;;;;;7.48;100.00;99617.34;5028200;28;20036;-55
2022/10/27 04:57:31;;;;;;;6.95;4.25;;;;;;;7.43;100.00;99612.44;5018970;28;20037;-55
2022/10/27 04:59:57;;;;;;;7.90;4.00;;;;;;;7.49;100.00;99627.09;5020307;28;20018;-55
2022/10/27 05:02:22;;;;;;;10.38;3.90;;;;;;;7.48;100.00;99622.72;5022941;28;20023;-55
2022/10/27 05:04:47;;;;;;;20.77;5.47;;;;;;;7.45;100.00;99629.28;5021202;28;20024;-55
2022/10/27 05:07:13;;;;;;;7.63;4.10;;;;;;;7.50;100.00;99626.09;5025740;28;20092;-55
2022/10/27 05:09:38;;;;;;;7.22;4.55;;;;;;;7.51;100.00;99622.41;5019019;28;20021;-55
2022/10/27 05:12:04;;;;;;;9.93;4.53;;;;;;;7.48;100.00;99620.03;5021656;28;20034;-54
2022/10/27 05:14:29;;;;;;;6.80;4.30;;;;;;;7.64;100.00;99612.00;5026704;28;20627;-55
2022/10/27 05:16:54;;;;;;;8.75;4.60;;;;;;;7.86;100.00;99605.16;5024995;28;20022;-55
2022/10/27 05:19:20;;;;;;;10.88;5.35;;;;;;;7.96;100.00;99613.06;5028285;28;20037;-54
2022/10/27 05:21:45;;;;;;;12.73;4.78;;;;;;;7.94;100.00;99609.72;5025086;28;20030;-54
2022/10/27 05:24:11;;;;;;;13.95;4.68;;;;;;;7.92;100.00;99608.19;5027425;28;20036;-53
2022/10/27 05:26:36;;;;;;;8.85;4.38;;;;;;;7.82;100.00;99606.47;5027222;28;20025;-54
2022/10/27 05:29:01;;;;;;;9.30;5.15;;;;;;;7.78;100.00;99605.16;5021032;28;20021;-54
2022/10/27 05:31:27;;;;;;;7.32;4.10;;;;;;;7.77;100.00;99613.38;5020258;28;20381;-55
2022/10/27 05:33:52;;;;;;;6.90;4.22;;;;;;;7.75;100.00;99610.00;5019563;28;20117;-54
2022/10/27 05:36:18;;;;;;;8.80;4.60;;;;;;;7.64;100.00;99620.06;5024839;28;20102;-55
2022/10/27 05:38:46;;;;;;;7.80;3.85;;;;;;;7.65;100.00;99613.69;5019388;28;20022;-54
2022/10/27 05:41:12;;;;;;;8.50;4.53;;;;;;;7.85;100.00;99608.00;5025482;28;20565;-54
2022/10/27 05:43:38;;;;;;;8.85;4.85;;;;;;;8.03;100.00;99607.88;5020581;28;20056;-54
2022/10/27 05:46:04;;;;;;;8.65;4.13;;;;;;;7.89;100.00;99607.50;5020687;28;20030;-54
2022/10/27 05:48:29;;;;;;;11.70;4.97;;;;;;;7.69;100.00;99603.44;5021657;28;20026;-54
2022/10/27 05:50:55;;;;;;;7.60;4.68;;;;;;;7.63;100.00;99610.31;5019567;28;20439;-54
2022/10/27 05:53:20;;;;;;;10.90;4.57;;;;;;;7.49;100.00;99602.88;5020769;28;20489;-54
2022/10/27 05:55:46;;;;;;;8.40;4.55;;;;;;;7.47;100.00;99599.50;5027735;28;20026;-54
2022/10/27 05:58:12;;;;;;;12.60;4.75;;;;;;;7.43;100.00;99609.75;5024973;28;20025;-54
2022/10/27 06:00:38;;;;;;;8.73;3.65;;;;;;;7.36;100.00;99605.19;5016638;28;20492;-54
2022/10/27 06:03:12;;;;;;;7.65;4.28;;;;;;;7.39;100.00;99612.97;5020094;28;20021;-54
2022/10/27 06:05:38;;;;;;;5.95;3.50;;;;;;;7.54;100.00;99611.28;5027182;28;20161;-54
2022/10/27 06:08:03;;;;;;;8.35;4.05;;;;;;;7.66;100.00;99610.00;5020701;28;20060;-54
2022/10/27 06:10:29;;;;;;;10.52;3.80;;;;;;;7.68;100.00;99612.53;5022148;28;20033;-54
2022/10/27 06:13:02;;;;;;;6.13;3.33;;;;;;;7.83;100.00;99610.00;5025117;28;20028;-53
2022/10/27 06:15:28;;;;;;;10.40;5.35;;;;;;;8.00;100.00;99611.72;5025199;28;20025;-54
2022/10/27 06:17:53;;;;;;;6.80;3.45;;;;;;;8.03;100.00;99605.16;5024184;28;20037;-54
2022/10/27 06:20:20;;;;;;;5.47;3.40;;;;;;;8.05;100.00;99603.16;5022036;28;20029;-55
2022/10/27 06:22:46;;;;;;;6.20;3.30;;;;;;;8.06;100.00;99600.28;5021410;28;20036;-54
2022/10/27 06:25:11;;;;;;;4.80;2.95;;;;;;;8.04;100.00;99605.00;5026690;28;20079;-54
2022/10/27 06:27:37;;;;;;;7.18;2.80;;;;;;;7.94;100.00;99604.31;5027781;28;20033;-54
2022/10/27 06:30:03;;;;;;;10.57;2.78;;;;;;;7.97;100.00;99609.38;5021325;28;20040;-53
2022/10/27 06:32:28;;;;;;;5.07;2.95;;;;;;;8.06;100.00;99611.06;5011766;28;20057;-54
2022/10/27 06:34:54;;;;;;;5.78;3.08;;;;;;;9.26;100.00;99605.00;5016807;28;20029;-55
2022/10/27 06:37:19;;;;;;;4.75;3.08;;;;;;;10.52;100.00;99586.59;5019401;28;20034;-55
2022/10/27 06:39:45;;;;;;;4.05;2.67;;;;;;;11.82;100.00;99560.78;5018413;28;20127;-55
2022/10/27 06:42:11;;;;;;;3.75;3.10;;;;;;;12.89;100.00;99554.34;5027504;28;20056;-55
2022/10/27 06:44:36;;;;;;;3.90;2.90;;;;;;;13.58;100.00;99553.47;5027388;28;20460;-55
2022/10/27 06:47:02;;;;;;;3.83;2.58;;;;;;;14.29;100.00;99565.72;5028197;28;20034;-56
2022/10/27 06:49:27;;;;;;;2.20;1.70;;;;;;;14.95;100.00;99570.31;5024230;28;20056;-56
2022/10/27 06:51:54;;;;;;;1.73;1.20;;;;;;;15.54;100.00;99574.72;5023917;28;20055;-56
2022/10/27 06:54:20;;;;;;;1.63;1.20;;;;;;;16.08;100.00;99578.03;5031915;28;20026;-56
2022/10/27 06:56:45;;;;;;;1.95;1.10;;;;;;;16.78;100.00;99577.91;5034628;28;20021;-56
2022/10/27 06:59:18;;;;;;;1.02;0.90;;;;;;;17.09;100.00;99583.28;5031392;28;20125;-56
2022/10/27 07:01:43;;;;;;;2.60;0.90;;;;;;;18.43;100.00;99581.53;5030765;28;20068;-57
2022/10/27 07:04:10;;;;;;;3.38;1.80;;;;;;;18.84;100.00;99577.91;5028748;28;20105;-56
2022/10/27 07:06:35;;;;;;;3.72;2.00;;;;;;;18.95;98.70;99579.78;5021149;28;20096;-56
2022/10/27 07:09:01;;;;;;;3.80;2.25;;;;;;;18.27;91.94;99578.38;5022704;28;20163;-56
2022/10/27 07:11:29;;;;;;;7.00;2.70;;;;;;;18.71;87.53;99583.59;5027742;28;20052;-56
2022/10/27 07:13:55;;;;;;;6.57;2.90;;;;;;;19.15;86.42;99573.09;5018376;28;20170;-56
2022/10/27 07:16:21;;;;;;;5.30;3.22;;;;;;;18.85;82.85;99568.59;5028963;28;20552;-56
2022/10/27 07:18:47;;;;;;;7.18;2.95;;;;;;;19.36;84.33;99566.13;5025544;28;20029;-56
2022/10/27 07:21:13;;;;;;;9.50;2.70;;;;;;;19.28;77.99;99561.84;5030943;28;20033;-56
2022/10/27 07:23:39;;;;;;;4.07;2.58;;;;;;;19.02;84.77;99563.19;5028609;28;20594;-57
2022/10/27 07:26:04;;;;;;;8.35;2.67;;;;;;;20.06;80.46;99554.91;5029518;28;20045;-56
2022/10/27 07:28:30;;;;;;;6.85;2.95;;;;;;;20.98;75.51;99550.94;5028532;28;20026;-56
2022/10/27 07:30:56;;;;;;;8.32;3.15;;;;;;;20.43;72.44;99557.19;5027155;28;20022;-57
2022/10/27 07:33:22;;;;;;;12.23;3.08;;;;;;;20.81;69.31;99563.06;5029267;28;20075;-57
2022/10/27 07:35:49;;;;;;;9.00;3.10;;;;;;;20.17;75.24;99566.09;5030763;28;20022;-57
2022/10/27 07:38:15;;;;;;;9.52;3.20;;;;;;;20.88;71.55;99564.56;5033123;28;20043;-55
2022/10/27 07:40:40;;;;;;;4.15;2.85;;;;;;;21.71;66.97;99567.31;5023743;28;20022;-55
2022/10/27 07:43:05;;;;;;;8.60;3.13;;;;;;;22.03;68.14;99572.91;5026377;28;20021;-55
2022/10/27 07:45:32;;;;;;;10.00;2.83;;;;;;;22.72;62.56;99577.69;5027418;28;20017;-55
2022/10/27 07:47:57;;;;;;;9.90;3.00;;;;;;;23.29;60.29;99576.16;5029615;28;20033;-56
2022/10/27 07:50:28;;;;;;;4.30;2.58;;;;;;;23.45;61.72;99579.84;5027520;28;20045;-57
2022/10/27 07:52:55;;;;;;;9.45;2.95;;;;;;;23.79;60.03;99577.50;5024345;28;20112;-58
2022/10/27 07:55:22;;;;;;;9.00;2.50;;;;;;;24.14;59.07;99583.38;5022474;28;20025;-58
2022/10/27 07:57:57;;;;;;;10.18;2.60;;;;;;;24.22;60.68;99589.19;5027205;28;20577;-58
2022/10/27 08:00:22;;;;;;;10.18;2.50;;;;;;;23.41;60.14;99598.84;5027026;28;20112;-58
2022/10/27 08:02:48;;;;;;;6.38;2.72;;;;;;;23.75;61.32;99594.88;5021948;28;20027;-56
2022/10/27 08:05:13;;;;;;;7.38;2.58;;;;;;;24.04;59.20;99582.25;5031548;28;20028;-56
2022/10/27 08:07:38;;;;;;;6.93;2.40;;;;;;;23.99;59.35;99584.19;5023352;28;20032;-56
2022/10/27 08:10:04;;;;;;;8.60;2.33;;;;;;;24.15;59.41;99594.16;5016894;28;20025;-56
2022/10/27 08:12:30;;;;;;;8.50;2.47;;;;;;;24.16;59.14;99598.59;5021617;28;20057;-56
2022/10/27 08:14:55;;;;;;;6.63;2.75;;;;;;;24.12;59.84;99594.72;5029610;28;20599;-57
2022/10/27 08:17:21;;;;;;;11.20;2.67;;;;;;;24.18;60.45;99598.31;5025401;28;20037;-57
2022/10/27 08:19:46;;;;;;;10.10;2.67;;;;;;;24.64;58.70;99593.69;5021484;28;20530;-57
2022/10/27 08:22:11;;;;;;;4.97;2.40;;;;;;;24.33;60.68;99592.81;5018639;28;20540;-57
2022/10/27 08:24:37;;;;;;;6.70;2.60;;;;;;;24.45;60.18;99601.72;5023430;28;20021;-57
2022/10/27 08:27:02;;;;;;;6.38;2.10;;;;;;;26.09;55.94;99598.56;5018948;28;20023;-57
2022/10/27 08:29:28;;;;;;;7.05;2.15;;;;;;;25.63;56.09;99596.00;5021891;28;20033;-56
2022/10/27 08:31:53;;;;;;;10.35;2.33;;;;;;;27.09;53.77;99594.47;5020470;28;20021;-56
2022/10/27 08:34:19;;;;;;;5.20;2.35;;;;;;;26.13;54.06;99596.06;5020703;28;20160;-55
2022/10/27 08:36:44;;;;;;;7.80;2.65;;;;;;;26.21;54.83;99593.50;5024047;28;20156;-55
2022/10/27 08:39:11;;;;;;;6.53;2.35;;;;;;;26.05;54.06;99600.28;5021272;28;20033;-56
2022/10/27 08:41:56;;;;;;;14.10;2.88;;;;;;;25.87;54.94;99595.38;5020310;28;20033;-56
2022/10/27 08:44:31;;;;;;;7.72;2.60;;;;;;;25.51;57.23;99593.56;5017158;28;20053;-57
2022/10/27 08:47:04;;;;;;;12.60;2.70;;;;;;;25.36;58.12;99599.13;5027814;28;20105;-56
2022/10/27 08:49:38;;;;;;;7.18;2.15;;;;;;;26.14;55.09;99586.63;5021807;28;20120;-56
2022/10/27 08:52:36;;;;;;;12.50;2.85;;;;;;;25.69;56.45;99588.50;5020557;28;20108;-56
2022/10/27 08:55:24;;;;;;;12.15;2.72;;;;;;;24.84;62.37;99589.28;4991294;28;20175;-55
2022/10/27 08:58:02;;;;;;;7.55;2.80;;;;;;;25.59;58.52;99592.13;5024780;28;21253;-55
2022/10/27 09:00:38;;;;;;;7.68;2.35;;;;;;;27.57;53.53;99590.91;5006732;28;20094;-59
2022/10/27 09:03:03;;;;;;;10.48;2.63;;;;;;;27.16;53.01;99599.66;5013029;28;20028;-59
2022/10/27 09:06:07;;;;;;;11.23;2.60;;;;;;;26.91;53.33;99588.81;5023366;28;20022;-58
2022/10/27 09:09:09;;;;;;;6.60;2.38;;;;;;;26.87;54.87;99586.63;4966379;28;20092;-58
2022/10/27 09:11:53;;;;;;;8.77;2.72;;;;;;;27.94;52.18;99584.63;5025918;28;20022;-59
2022/10/27 09:14:32;;;;;;;8.48;2.30;;;;;;;28.52;50.63;99591.84;5025272;28;20358;-59
2022/10/27 09:17:16;;;;;;;6.35;2.35;;;;;;;28.35;50.03;99591.56;5020436;28;20029;-59
2022/10/27 09:20:28;;;;;;;6.80;2.28;;;;;;;28.69;50.27;99579.31;5018350;28;20040;-59
2022/10/27 09:22:58;;;;;;;11.27;2.38;;;;;;;29.55;47.50;99584.44;5015178;28;20973;-59
2022/10/27 09:25:24;;;;;;;5.20;2.03;;;;;;;29.03;49.98;99590.16;5024749;28;20389;-58
2022/10/27 09:27:56;;;;;;;7.47;2.33;;;;;;;28.88;48.86;99588.47;5024261;28;20025;-59
2022/10/27 09:30:21;;;;;;;8.80;2.35;;;;;;;28.48;50.49;99584.41;5021963;28;20038;-59
2022/10/27 09:32:54;;;;;;;7.63;2.45;;;;;;;28.89;49.95;99575.34;5019164;28;20026;-60
2022/10/27 09:35:23;;;;;;;7.32;2.25;;;;;;;29.65;47.79;99584.25;5019986;28;20033;-60
2022/10/27 09:37:50;;;;;;;9.60;2.47;;;;;;;29.68;48.20;99580.84;5023993;28;20033;-59
2022/10/27 09:40:18;;;;;;;9.40;2.42;;;;;;;28.97;49.69;99586.63;5028703;28;20036;-58
2022/10/27 09:42:45;;;;;;;5.50;2.33;;;;;;;29.83;47.78;99579.69;5023617;28;20147;-59
2022/10/27 09:45:25;;;;;;;7.72;2.30;;;;;;;30.15;47.26;99568.31;5022355;28;20036;-58
2022/10/27 09:47:58;;;;;;;9.27;2.55;;;;;;;31.38;44.86;99572.81;5015419;28;20033;-58
2022/10/27 09:50:28;;;;;;;8.70;2.35;;;;;;;30.63;46.25;99574.47;5021019;28;20398;-58
2022/10/27 09:52:54;;;;;;;10.27;2.47;;;;;;;30.30;45.54;99569.97;5022554;28;20021;-58
2022/10/27 09:55:20;;;;;;;14.40;2.80;;;;;;;31.23;44.35;99563.69;5024130;28;20025;-58
2022/10/27 09:57:47;;;;;;;6.10;2.50;;;;;;;30.09;46.29;99565.97;5027658;28;20033;-58
2022/10/27 10:00:15;;;;;;;7.45;2.67;;;;;;;30.26;46.64;99563.38;5022849;28;20033;-58
2022/10/27 10:03:01;;;;;;;;;;;;;;;30.06;46.66;99566.63;5025236;28;20036;-58
2022/10/27 10:05:33;;;;;;;6.25;2.53;;;;;;;30.26;46.57;99555.00;5018651;28;20237;-58
2022/10/27 10:08:25;;;;;;;9.75;2.28;;;;;;;30.99;44.83;99555.69;5020812;28;20535;-59
2022/10/27 10:10:53;;;;;;;6.60;2.45;;;;;;;29.93;47.58;99563.53;5023628;28;20030;-59
2022/10/27 10:13:19;;;;;;;;;;;;;;;30.83;44.40;99562.00;5020935;28;20026;-59
2022/10/27 10:15:45;;;;;;;6.97;2.25;;;;;;;30.79;45.56;99557.03;5027480;28;19917;-59
2022/10/27 10:18:27;;;;;;;9.52;2.10;;;;;;;30.38;45.77;99565.59;5027002;28;20038;-59
2022/10/27 10:21:05;;;;;;;6.55;2.38;;;;;;;32.65;41.75;99550.44;5023681;28;20033;-59
2022/10/27 10:23:34;;;;;;;7.60;2.38;;;;;;;31.84;43.09;99555.50;5027709;28;20033;-59
2022/10/27 10:26:02;;;;;;;7.53;2.38;;;;;;;31.67;43.30;99553.47;5023765;28;20104;-58
2022/10/27 10:28:41;;;;;;;8.20;2.33;;;;;;;31.25;43.76;99554.97;5022378;28;20091;-57
2022/10/27 10:31:10;;;;;;;8.45;2.22;;;;;;;30.39;45.85;99546.88;5023544;28;20026;-57
2022/10/27 10:33:43;;;;;;;10.60;2.15;;;;;;;32.58;42.48;99548.13;5025013;28;20029;-57
2022/10/27 10:36:37;;;;;;;7.78;2.53;;;;;;;32.24;42.41;99543.38;5023921;28;20033;-57
2022/10/27 10:39:23;;;;;;;8.15;2.58;;;;;;;31.38;43.79;99539.25;5019202;28;20044;-57
2022/10/27 10:42:12;;;;;;;12.52;3.60;;;;;;;30.99;44.73;99526.91;5017589;28;20029;-57
2022/10/27 10:44:38;;;;;;;9.68;2.17;;;;;;;30.39;45.44;99530.94;5016131;28;20569;-57
2022/10/27 10:47:06;;;;;;;13.02;2.22;;;;;;;29.81;45.49;99526.16;5027477;28;20116;-57
2022/10/27 10:49:36;;;;;;;8.43;2.15;;;;;;;30.50;44.26;99528.75;5021915;28;20047;-57
2022/10/27 10:52:17;;;;;;;5.68;2.47;;;;;;;30.77;43.74;99516.56;5019971;28;20037;-57
2022/10/27 10:54:45;;;;;;;9.93;2.25;;;;;;;30.40;44.18;99515.03;5028989;28;20033;-57
2022/10/27 10:57:36;;;;;;;5.03;2.10;;;;;;;30.33;45.03;99510.72;5024877;28;20290;-57
2022/10/27 11:00:05;;;;;;;10.02;2.30;;;;;;;30.11;44.92;99514.28;5026575;28;20079;-57
2022/10/27 11:02:33;;;;;;;9.27;2.38;;;;;;;30.72;43.97;99520.31;5022319;28;20038;-57
2022/10/27 11:05:21;;;;;;;9.50;2.42;;;;;;;29.75;45.54;99510.69;5021451;28;20120;-56
2022/10/27 11:07:48;;;;;;;8.73;1.95;;;;;;;29.84;45.72;99512.44;5018614;28;20029;-56
2022/10/27 11:10:17;;;;;;;9.45;2.30;;;;;;;31.28;44.07;99511.56;5025769;28;20033;-56
2022/10/27 11:12:50;;;;;;;9.35;2.03;;;;;;;31.22;43.34;99508.09;5019896;28;20035;-56
2022/10/27 11:15:26;;;;;;;9.63;2.17;;;;;;;30.21;44.65;99510.44;5027053;28;20029;-62
2022/10/27 11:17:57;;;;;;;6.75;1.63;;;;;;;30.58;45.14;99500.03;5021758;28;20029;-57
2022/10/27 11:20:27;;;;;;;8.50;1.67;;;;;;;31.14;44.06;99506.91;5019178;28;20034;-56
2022/10/27 11:22:55;;;;;;;12.32;2.20;;;;;;;30.93;43.92;99501.06;5021512;28;20033;-56
2022/10/27 11:25:27;;;;;;;8.40;1.70;;;;;;;31.38;42.69;99495.31;5035072;28;20030;-56
2022/10/27 11:28:14;;;;;;;6.32;1.70;;;;;;;31.55;41.79;99486.16;5021644;28;20030;-57
2022/10/27 11:30:49;;;;;;;12.30;2.03;;;;;;;31.50;42.24;99497.50;5020790;28;20026;-57
2022/10/27 11:33:26;;;;;;;7.75;1.60;;;;;;;31.66;42.11;99497.88;5024293;28;20163;-56
2022/10/27 11:36:15;;;;;;;7.45;1.90;;;;;;;31.84;41.10;99493.13;5026184;28;20042;-56
2022/10/27 11:39:36;;;;;;;8.55;1.95;;;;;;;32.12;40.44;99485.22;5025146;28;20121;-57
2022/10/27 11:42:20;;;;;;;8.70;1.50;;;;;;;32.75;40.21;99477.25;4998595;28;20447;-57